sensor_id;sensor_type;location;lat;lon;timestamp;temperature;humidity
80176;DHT22;75462;42.122;24.736;2024-02-26T00:01:56;12.10;76.70
80176;DHT22;75462;42.122;24.736;2024-02-26T00:04:21;12.30;75.90
80176;DHT22;75462;42.122;24.736;2024-02-26T00:06:47;12.10;76.40
80176;DHT22;75462;42.122;24.736;2024-02-26T00:09:15;11.90;76.80
80176;DHT22;75462;42.122;24.736;2024-02-26T00:11:41;11.90;76.90
80176;DHT22;75462;42.122;24.736;2024-02-26T00:14:07;11.90;76.60
80176;DHT22;75462;42.122;24.736;2024-02-26T00:16:32;11.90;77.20
80176;DHT22;75462;42.122;24.736;2024-02-26T00:18:58;12.00;76.20
80176;DHT22;75462;42.122;24.736;2024-02-26T00:21:24;12.50;73.40
80176;DHT22;75462;42.122;24.736;2024-02-26T00:23:50;12.30;74.60
80176;DHT22;75462;42.122;24.736;2024-02-26T00:26:18;12.00;75.70
80176;DHT22;75462;42.122;24.736;2024-02-26T00:28:44;12.00;75.90
80176;DHT22;75462;42.122;24.736;2024-02-26T00:31:09;12.60;73.10
80176;DHT22;75462;42.122;24.736;2024-02-26T00:33:36;12.60;72.20
80176;DHT22;75462;42.122;24.736;2024-02-26T00:36:01;12.30;73.90
80176;DHT22;75462;42.122;24.736;2024-02-26T00:38:27;11.90;76.20
80176;DHT22;75462;42.122;24.736;2024-02-26T00:40:53;12.20;74.30
80176;DHT22;75462;42.122;24.736;2024-02-26T00:43:19;12.50;72.70
80176;DHT22;75462;42.122;24.736;2024-02-26T00:45:44;12.20;74.30
80176;DHT22;75462;42.122;24.736;2024-02-26T00:48:12;11.90;75.80
80176;DHT22;75462;42.122;24.736;2024-02-26T00:50:39;11.80;76.40
80176;DHT22;75462;42.122;24.736;2024-02-26T00:53:05;11.60;77.80
80176;DHT22;75462;42.122;24.736;2024-02-26T00:55:31;11.80;76.80
80176;DHT22;75462;42.122;24.736;2024-02-26T00:57:56;12.20;74.70
80176;DHT22;75462;42.122;24.736;2024-02-26T01:00:22;12.00;76.40
80176;DHT22;75462;42.122;24.736;2024-02-26T01:02:48;11.60;78.50
80176;DHT22;75462;42.122;24.736;2024-02-26T01:05:14;11.90;77.60
80176;DHT22;75462;42.122;24.736;2024-02-26T01:07:41;12.10;76.10
80176;DHT22;75462;42.122;24.736;2024-02-26T01:10:07;12.00;76.70
80176;DHT22;75462;42.122;24.736;2024-02-26T01:12:34;11.80;77.80
80176;DHT22;75462;42.122;24.736;2024-02-26T01:15:00;12.00;76.60
80176;DHT22;75462;42.122;24.736;2024-02-26T01:17:26;11.50;79.20
80176;DHT22;75462;42.122;24.736;2024-02-26T01:19:52;11.40;81.00
80176;DHT22;75462;42.122;24.736;2024-02-26T01:22:19;11.50;80.50
80176;DHT22;75462;42.122;24.736;2024-02-26T01:24:45;11.70;79.20
80176;DHT22;75462;42.122;24.736;2024-02-26T01:27:11;11.70;80.50
80176;DHT22;75462;42.122;24.736;2024-02-26T01:29:36;11.90;78.00
80176;DHT22;75462;42.122;24.736;2024-02-26T01:32:02;11.90;78.20
80176;DHT22;75462;42.122;24.736;2024-02-26T01:34:30;12.20;76.30
80176;DHT22;75462;42.122;24.736;2024-02-26T01:36:56;12.20;76.30
80176;DHT22;75462;42.122;24.736;2024-02-26T01:39:21;12.20;76.30
80176;DHT22;75462;42.122;24.736;2024-02-26T01:41:48;12.10;76.90
80176;DHT22;75462;42.122;24.736;2024-02-26T01:44:13;12.00;77.10
80176;DHT22;75462;42.122;24.736;2024-02-26T01:46:39;11.90;77.80
80176;DHT22;75462;42.122;24.736;2024-02-26T01:49:05;11.90;77.80
80176;DHT22;75462;42.122;24.736;2024-02-26T01:51:32;11.90;77.70
80176;DHT22;75462;42.122;24.736;2024-02-26T01:54:00;11.90;77.80
80176;DHT22;75462;42.122;24.736;2024-02-26T01:56:28;11.90;77.30
80176;DHT22;75462;42.122;24.736;2024-02-26T01:58:57;11.80;78.00
80176;DHT22;75462;42.122;24.736;2024-02-26T02:01:25;11.80;77.60
80176;DHT22;75462;42.122;24.736;2024-02-26T02:03:53;11.70;77.70
80176;DHT22;75462;42.122;24.736;2024-02-26T02:06:19;11.60;78.40
80176;DHT22;75462;42.122;24.736;2024-02-26T02:08:45;11.60;78.40
80176;DHT22;75462;42.122;24.736;2024-02-26T02:11:10;11.50;78.60
80176;DHT22;75462;42.122;24.736;2024-02-26T02:13:37;11.30;79.60
80176;DHT22;75462;42.122;24.736;2024-02-26T02:16:03;11.20;80.40
80176;DHT22;75462;42.122;24.736;2024-02-26T02:18:29;11.30;79.70
80176;DHT22;75462;42.122;24.736;2024-02-26T02:20:55;11.70;77.70
80176;DHT22;75462;42.122;24.736;2024-02-26T02:23:22;11.50;78.10
80176;DHT22;75462;42.122;24.736;2024-02-26T02:25:48;11.50;78.40
80176;DHT22;75462;42.122;24.736;2024-02-26T02:28:13;11.70;78.50
80176;DHT22;75462;42.122;24.736;2024-02-26T02:30:39;11.90;76.10
80176;DHT22;75462;42.122;24.736;2024-02-26T02:33:05;12.30;74.40
80176;DHT22;75462;42.122;24.736;2024-02-26T02:35:31;12.40;73.60
80176;DHT22;75462;42.122;24.736;2024-02-26T02:37:57;12.00;75.20
80176;DHT22;75462;42.122;24.736;2024-02-26T02:40:23;11.80;76.30
80176;DHT22;75462;42.122;24.736;2024-02-26T02:42:49;11.90;76.00
80176;DHT22;75462;42.122;24.736;2024-02-26T02:45:15;12.20;74.20
80176;DHT22;75462;42.122;24.736;2024-02-26T02:47:40;12.30;73.50
80176;DHT22;75462;42.122;24.736;2024-02-26T02:50:06;12.50;72.60
80176;DHT22;75462;42.122;24.736;2024-02-26T02:52:32;12.50;72.00
80176;DHT22;75462;42.122;24.736;2024-02-26T02:54:58;12.50;72.00
80176;DHT22;75462;42.122;24.736;2024-02-26T02:57:24;12.40;72.20
80176;DHT22;75462;42.122;24.736;2024-02-26T02:59:49;12.30;72.80
80176;DHT22;75462;42.122;24.736;2024-02-26T03:02:16;12.30;73.30
80176;DHT22;75462;42.122;24.736;2024-02-26T03:04:42;12.20;73.30
80176;DHT22;75462;42.122;24.736;2024-02-26T03:07:09;12.20;73.60
80176;DHT22;75462;42.122;24.736;2024-02-26T03:09:34;12.10;73.80
80176;DHT22;75462;42.122;24.736;2024-02-26T03:12:00;12.10;74.20
80176;DHT22;75462;42.122;24.736;2024-02-26T03:14:26;11.90;75.30
80176;DHT22;75462;42.122;24.736;2024-02-26T03:16:55;11.90;75.40
80176;DHT22;75462;42.122;24.736;2024-02-26T03:19:20;11.60;76.50
80176;DHT22;75462;42.122;24.736;2024-02-26T03:21:46;11.70;76.40
80176;DHT22;75462;42.122;24.736;2024-02-26T03:24:12;12.00;74.80
80176;DHT22;75462;42.122;24.736;2024-02-26T03:26:38;12.20;73.60
80176;DHT22;75462;42.122;24.736;2024-02-26T03:29:04;12.10;73.70
80176;DHT22;75462;42.122;24.736;2024-02-26T03:31:30;12.00;74.40
80176;DHT22;75462;42.122;24.736;2024-02-26T03:33:56;12.10;74.40
80176;DHT22;75462;42.122;24.736;2024-02-26T03:36:21;12.20;73.80
80176;DHT22;75462;42.122;24.736;2024-02-26T03:38:48;12.20;73.70
80176;DHT22;75462;42.122;24.736;2024-02-26T03:41:14;12.30;73.50
80176;DHT22;75462;42.122;24.736;2024-02-26T03:43:40;12.40;73.40
80176;DHT22;75462;42.122;24.736;2024-02-26T03:46:09;12.40;73.10
80176;DHT22;75462;42.122;24.736;2024-02-26T03:48:36;12.30;73.60
80176;DHT22;75462;42.122;24.736;2024-02-26T03:51:03;12.20;74.20
80176;DHT22;75462;42.122;24.736;2024-02-26T03:53:28;12.20;73.90
80176;DHT22;75462;42.122;24.736;2024-02-26T03:55:54;12.20;73.90
80176;DHT22;75462;42.122;24.736;2024-02-26T03:58:21;12.10;74.40
80176;DHT22;75462;42.122;24.736;2024-02-26T04:00:46;12.10;74.60
80176;DHT22;75462;42.122;24.736;2024-02-26T04:03:15;12.10;74.40
80176;DHT22;75462;42.122;24.736;2024-02-26T04:05:41;12.10;74.40
80176;DHT22;75462;42.122;24.736;2024-02-26T04:08:07;12.10;74.70
80176;DHT22;75462;42.122;24.736;2024-02-26T04:10:33;12.10;75.00
80176;DHT22;75462;42.122;24.736;2024-02-26T04:13:01;11.90;75.00
80176;DHT22;75462;42.122;24.736;2024-02-26T04:15:26;11.90;75.30
80176;DHT22;75462;42.122;24.736;2024-02-26T04:17:52;11.90;75.40
80176;DHT22;75462;42.122;24.736;2024-02-26T04:20:17;12.00;74.90
80176;DHT22;75462;42.122;24.736;2024-02-26T04:22:44;12.00;74.70
80176;DHT22;75462;42.122;24.736;2024-02-26T04:25:09;11.90;74.80
80176;DHT22;75462;42.122;24.736;2024-02-26T04:27:35;11.90;75.10
80176;DHT22;75462;42.122;24.736;2024-02-26T04:30:01;11.90;75.00
80176;DHT22;75462;42.122;24.736;2024-02-26T04:32:27;11.90;74.60
80176;DHT22;75462;42.122;24.736;2024-02-26T04:34:53;11.90;74.10
80176;DHT22;75462;42.122;24.736;2024-02-26T04:37:19;11.90;73.20
80176;DHT22;75462;42.122;24.736;2024-02-26T04:39:45;11.90;72.90
80176;DHT22;75462;42.122;24.736;2024-02-26T04:42:11;11.80;73.00
80176;DHT22;75462;42.122;24.736;2024-02-26T04:44:36;11.70;73.10
80176;DHT22;75462;42.122;24.736;2024-02-26T04:47:02;11.70;73.10
80176;DHT22;75462;42.122;24.736;2024-02-26T04:49:28;11.70;73.00
80176;DHT22;75462;42.122;24.736;2024-02-26T04:51:54;11.70;72.70
80176;DHT22;75462;42.122;24.736;2024-02-26T04:54:20;11.70;72.40
80176;DHT22;75462;42.122;24.736;2024-02-26T04:56:46;11.70;72.30
80176;DHT22;75462;42.122;24.736;2024-02-26T04:59:11;11.70;72.30
80176;DHT22;75462;42.122;24.736;2024-02-26T05:01:37;11.80;72.10
80176;DHT22;75462;42.122;24.736;2024-02-26T05:04:03;11.80;72.70
80176;DHT22;75462;42.122;24.736;2024-02-26T05:06:29;11.80;71.70
80176;DHT22;75462;42.122;24.736;2024-02-26T05:08:55;11.80;72.00
80176;DHT22;75462;42.122;24.736;2024-02-26T05:11:20;11.70;72.20
80176;DHT22;75462;42.122;24.736;2024-02-26T05:13:48;11.80;72.20
80176;DHT22;75462;42.122;24.736;2024-02-26T05:16:13;11.80;71.80
80176;DHT22;75462;42.122;24.736;2024-02-26T05:18:39;11.80;72.00
80176;DHT22;75462;42.122;24.736;2024-02-26T05:21:05;12.00;71.30
80176;DHT22;75462;42.122;24.736;2024-02-26T05:23:31;12.00;70.70
80176;DHT22;75462;42.122;24.736;2024-02-26T05:25:56;12.00;70.50
80176;DHT22;75462;42.122;24.736;2024-02-26T05:28:22;12.00;70.70
80176;DHT22;75462;42.122;24.736;2024-02-26T05:30:48;11.90;71.10
80176;DHT22;75462;42.122;24.736;2024-02-26T05:33:14;11.90;71.40
80176;DHT22;75462;42.122;24.736;2024-02-26T05:35:39;11.90;71.30
80176;DHT22;75462;42.122;24.736;2024-02-26T05:38:05;12.00;71.30
80176;DHT22;75462;42.122;24.736;2024-02-26T05:40:31;12.00;71.10
80176;DHT22;75462;42.122;24.736;2024-02-26T05:42:57;12.00;71.10
80176;DHT22;75462;42.122;24.736;2024-02-26T05:45:23;12.00;71.10
80176;DHT22;75462;42.122;24.736;2024-02-26T05:47:48;12.00;71.40
80176;DHT22;75462;42.122;24.736;2024-02-26T05:50:15;12.00;71.40
80176;DHT22;75462;42.122;24.736;2024-02-26T05:52:41;12.00;71.70
80176;DHT22;75462;42.122;24.736;2024-02-26T05:55:08;11.90;72.00
80176;DHT22;75462;42.122;24.736;2024-02-26T05:57:34;11.90;72.40
80176;DHT22;75462;42.122;24.736;2024-02-26T06:00:00;12.20;71.00
80176;DHT22;75462;42.122;24.736;2024-02-26T06:02:30;12.30;70.50
80176;DHT22;75462;42.122;24.736;2024-02-26T06:04:56;12.30;70.20
80176;DHT22;75462;42.122;24.736;2024-02-26T06:07:22;12.40;70.20
80176;DHT22;75462;42.122;24.736;2024-02-26T06:09:47;12.50;69.70
80176;DHT22;75462;42.122;24.736;2024-02-26T06:12:14;12.60;69.10
80176;DHT22;75462;42.122;24.736;2024-02-26T06:14:39;12.60;69.30
80176;DHT22;75462;42.122;24.736;2024-02-26T06:17:05;12.70;68.80
80176;DHT22;75462;42.122;24.736;2024-02-26T06:19:32;12.90;67.90
80176;DHT22;75462;42.122;24.736;2024-02-26T06:21:58;12.90;67.50
80176;DHT22;75462;42.122;24.736;2024-02-26T06:24:24;13.00;67.50
80176;DHT22;75462;42.122;24.736;2024-02-26T06:26:49;12.90;68.00
80176;DHT22;75462;42.122;24.736;2024-02-26T06:29:15;12.90;67.80
80176;DHT22;75462;42.122;24.736;2024-02-26T06:31:41;12.80;68.00
80176;DHT22;75462;42.122;24.736;2024-02-26T06:34:06;13.00;67.80
80176;DHT22;75462;42.122;24.736;2024-02-26T06:36:32;13.10;67.90
80176;DHT22;75462;42.122;24.736;2024-02-26T06:38:58;13.10;66.90
80176;DHT22;75462;42.122;24.736;2024-02-26T06:41:24;13.30;66.30
80176;DHT22;75462;42.122;24.736;2024-02-26T06:43:55;13.30;65.90
80176;DHT22;75462;42.122;24.736;2024-02-26T06:46:21;13.40;66.00
80176;DHT22;75462;42.122;24.736;2024-02-26T06:48:50;13.30;66.10
80176;DHT22;75462;42.122;24.736;2024-02-26T06:51:16;13.40;65.80
80176;DHT22;75462;42.122;24.736;2024-02-26T06:53:42;13.40;65.70
80176;DHT22;75462;42.122;24.736;2024-02-26T06:56:07;13.40;65.80
80176;DHT22;75462;42.122;24.736;2024-02-26T06:58:33;13.40;65.50
80176;DHT22;75462;42.122;24.736;2024-02-26T07:00:59;13.50;65.70
80176;DHT22;75462;42.122;24.736;2024-02-26T07:03:25;13.50;65.40
80176;DHT22;75462;42.122;24.736;2024-02-26T07:05:51;13.50;65.30
80176;DHT22;75462;42.122;24.736;2024-02-26T07:08:17;13.50;65.50
80176;DHT22;75462;42.122;24.736;2024-02-26T07:10:44;13.50;65.80
80176;DHT22;75462;42.122;24.736;2024-02-26T07:13:09;13.50;65.80
80176;DHT22;75462;42.122;24.736;2024-02-26T07:15:35;13.40;67.40
80176;DHT22;75462;42.122;24.736;2024-02-26T07:18:01;13.40;66.40
80176;DHT22;75462;42.122;24.736;2024-02-26T07:20:29;13.40;66.40
80176;DHT22;75462;42.122;24.736;2024-02-26T07:22:56;13.40;66.40
80176;DHT22;75462;42.122;24.736;2024-02-26T07:25:22;13.40;66.40
80176;DHT22;75462;42.122;24.736;2024-02-26T07:27:48;13.30;66.30
80176;DHT22;75462;42.122;24.736;2024-02-26T07:30:14;13.30;66.80
80176;DHT22;75462;42.122;24.736;2024-02-26T07:32:40;13.20;67.10
80176;DHT22;75462;42.122;24.736;2024-02-26T07:35:06;13.20;67.20
80176;DHT22;75462;42.122;24.736;2024-02-26T07:37:32;13.20;67.20
80176;DHT22;75462;42.122;24.736;2024-02-26T07:39:57;13.20;66.90
80176;DHT22;75462;42.122;24.736;2024-02-26T07:42:23;13.20;67.10
80176;DHT22;75462;42.122;24.736;2024-02-26T07:44:49;13.20;67.20
80176;DHT22;75462;42.122;24.736;2024-02-26T07:47:15;13.10;67.40
80176;DHT22;75462;42.122;24.736;2024-02-26T07:49:41;13.10;67.50
80176;DHT22;75462;42.122;24.736;2024-02-26T07:52:06;13.10;67.10
80176;DHT22;75462;42.122;24.736;2024-02-26T07:54:32;13.20;67.30
80176;DHT22;75462;42.122;24.736;2024-02-26T07:56:58;13.30;67.00
80176;DHT22;75462;42.122;24.736;2024-02-26T07:59:24;13.40;66.40
80176;DHT22;75462;42.122;24.736;2024-02-26T08:01:52;13.60;65.70
80176;DHT22;75462;42.122;24.736;2024-02-26T08:04:18;13.70;65.40
80176;DHT22;75462;42.122;24.736;2024-02-26T08:06:44;13.80;65.20
80176;DHT22;75462;42.122;24.736;2024-02-26T08:09:09;13.90;64.80
80176;DHT22;75462;42.122;24.736;2024-02-26T08:11:35;14.00;64.50
80176;DHT22;75462;42.122;24.736;2024-02-26T08:14:01;14.10;64.10
80176;DHT22;75462;42.122;24.736;2024-02-26T08:16:27;14.20;63.40
80176;DHT22;75462;42.122;24.736;2024-02-26T08:18:53;14.40;62.70
80176;DHT22;75462;42.122;24.736;2024-02-26T08:21:18;14.40;62.30
80176;DHT22;75462;42.122;24.736;2024-02-26T08:23:44;14.50;62.00
80176;DHT22;75462;42.122;24.736;2024-02-26T08:26:10;14.70;61.70
80176;DHT22;75462;42.122;24.736;2024-02-26T08:28:40;14.60;61.50
80176;DHT22;75462;42.122;24.736;2024-02-26T08:31:05;14.80;60.80
80176;DHT22;75462;42.122;24.736;2024-02-26T08:33:32;14.90;59.70
80176;DHT22;75462;42.122;24.736;2024-02-26T08:36:02;15.00;59.30
80176;DHT22;75462;42.122;24.736;2024-02-26T08:38:29;15.10;59.50
80176;DHT22;75462;42.122;24.736;2024-02-26T08:40:55;15.10;58.90
80176;DHT22;75462;42.122;24.736;2024-02-26T08:43:21;15.00;58.70
80176;DHT22;75462;42.122;24.736;2024-02-26T08:45:46;15.00;58.80
80176;DHT22;75462;42.122;24.736;2024-02-26T08:48:12;15.00;58.90
80176;DHT22;75462;42.122;24.736;2024-02-26T08:50:38;15.10;58.50
80176;DHT22;75462;42.122;24.736;2024-02-26T08:53:03;15.20;58.20
80176;DHT22;75462;42.122;24.736;2024-02-26T08:55:29;15.20;58.20
80176;DHT22;75462;42.122;24.736;2024-02-26T08:57:55;15.30;57.90
80176;DHT22;75462;42.122;24.736;2024-02-26T09:00:21;15.40;57.80
80176;DHT22;75462;42.122;24.736;2024-02-26T09:02:50;15.50;57.20
80176;DHT22;75462;42.122;24.736;2024-02-26T09:05:16;15.60;56.40
80176;DHT22;75462;42.122;24.736;2024-02-26T09:07:41;15.70;56.40
80176;DHT22;75462;42.122;24.736;2024-02-26T09:10:07;15.80;55.40
80176;DHT22;75462;42.122;24.736;2024-02-26T09:12:36;15.90;55.20
80176;DHT22;75462;42.122;24.736;2024-02-26T09:15:03;15.90;55.20
80176;DHT22;75462;42.122;24.736;2024-02-26T09:17:28;15.90;55.70
80176;DHT22;75462;42.122;24.736;2024-02-26T09:19:54;16.00;55.80
80176;DHT22;75462;42.122;24.736;2024-02-26T09:22:20;15.90;56.70
80176;DHT22;75462;42.122;24.736;2024-02-26T09:24:46;15.90;56.60
80176;DHT22;75462;42.122;24.736;2024-02-26T09:27:11;16.00;55.40
80176;DHT22;75462;42.122;24.736;2024-02-26T09:29:37;16.10;55.40
80176;DHT22;75462;42.122;24.736;2024-02-26T09:32:03;16.00;55.70
80176;DHT22;75462;42.122;24.736;2024-02-26T09:34:29;16.10;55.40
80176;DHT22;75462;42.122;24.736;2024-02-26T09:36:55;16.30;54.90
80176;DHT22;75462;42.122;24.736;2024-02-26T09:39:21;16.30;54.10
80176;DHT22;75462;42.122;24.736;2024-02-26T09:41:48;16.20;54.20
80176;DHT22;75462;42.122;24.736;2024-02-26T09:44:19;16.20;54.10
80176;DHT22;75462;42.122;24.736;2024-02-26T09:46:49;16.10;54.50
80176;DHT22;75462;42.122;24.736;2024-02-26T09:49:19;16.10;54.80
80176;DHT22;75462;42.122;24.736;2024-02-26T09:51:46;16.20;54.70
80176;DHT22;75462;42.122;24.736;2024-02-26T09:54:13;16.40;54.90
80176;DHT22;75462;42.122;24.736;2024-02-26T09:56:40;16.40;55.20
80176;DHT22;75462;42.122;24.736;2024-02-26T09:59:15;16.50;53.90
80176;DHT22;75462;42.122;24.736;2024-02-26T10:01:42;16.70;53.60
80176;DHT22;75462;42.122;24.736;2024-02-26T10:04:08;16.40;54.00
80176;DHT22;75462;42.122;24.736;2024-02-26T10:06:36;16.30;54.50
80176;DHT22;75462;42.122;24.736;2024-02-26T10:09:03;16.40;54.90
80176;DHT22;75462;42.122;24.736;2024-02-26T10:11:32;16.60;54.00
80176;DHT22;75462;42.122;24.736;2024-02-26T10:13:57;16.70;53.80
80176;DHT22;75462;42.122;24.736;2024-02-26T10:16:24;16.80;53.20
80176;DHT22;75462;42.122;24.736;2024-02-26T10:18:52;17.20;51.70
80176;DHT22;75462;42.122;24.736;2024-02-26T10:21:20;17.50;50.40
80176;DHT22;75462;42.122;24.736;2024-02-26T10:23:46;17.70;49.60
80176;DHT22;75462;42.122;24.736;2024-02-26T10:26:13;17.60;50.00
80176;DHT22;75462;42.122;24.736;2024-02-26T10:28:42;17.40;50.00
80176;DHT22;75462;42.122;24.736;2024-02-26T10:31:08;17.20;50.40
80176;DHT22;75462;42.122;24.736;2024-02-26T10:33:36;17.00;50.80
80176;DHT22;75462;42.122;24.736;2024-02-26T10:36:03;17.00;51.00
80176;DHT22;75462;42.122;24.736;2024-02-26T10:38:30;17.20;50.90
80176;DHT22;75462;42.122;24.736;2024-02-26T10:40:57;17.30;50.50
80176;DHT22;75462;42.122;24.736;2024-02-26T10:43:22;17.40;49.90
80176;DHT22;75462;42.122;24.736;2024-02-26T10:45:48;17.70;49.50
80176;DHT22;75462;42.122;24.736;2024-02-26T10:48:14;17.90;48.70
80176;DHT22;75462;42.122;24.736;2024-02-26T10:50:43;18.00;49.30
80176;DHT22;75462;42.122;24.736;2024-02-26T10:53:17;17.90;48.10
80176;DHT22;75462;42.122;24.736;2024-02-26T10:55:57;17.70;47.70
80176;DHT22;75462;42.122;24.736;2024-02-26T10:58:24;17.60;48.10
80176;DHT22;75462;42.122;24.736;2024-02-26T11:00:51;17.80;47.50
80176;DHT22;75462;42.122;24.736;2024-02-26T11:03:18;17.90;46.80
80176;DHT22;75462;42.122;24.736;2024-02-26T11:06:05;18.20;45.90
80176;DHT22;75462;42.122;24.736;2024-02-26T11:08:31;18.50;44.50
80176;DHT22;75462;42.122;24.736;2024-02-26T11:10:58;18.50;43.80
80176;DHT22;75462;42.122;24.736;2024-02-26T11:13:27;18.50;43.90
80176;DHT22;75462;42.122;24.736;2024-02-26T11:15:56;18.50;43.90
80176;DHT22;75462;42.122;24.736;2024-02-26T11:18:27;18.30;43.90
80176;DHT22;75462;42.122;24.736;2024-02-26T11:20:55;18.20;44.70
80176;DHT22;75462;42.122;24.736;2024-02-26T11:23:23;18.20;44.70
80176;DHT22;75462;42.122;24.736;2024-02-26T11:25:54;18.50;44.60
80176;DHT22;75462;42.122;24.736;2024-02-26T11:28:24;18.50;43.90
80176;DHT22;75462;42.122;24.736;2024-02-26T11:30:54;18.60;43.30
80176;DHT22;75462;42.122;24.736;2024-02-26T11:33:23;18.50;43.70
80176;DHT22;75462;42.122;24.736;2024-02-26T11:35:49;18.40;44.30
80176;DHT22;75462;42.122;24.736;2024-02-26T11:38:24;18.30;44.50
80176;DHT22;75462;42.122;24.736;2024-02-26T11:40:53;18.10;45.30
80176;DHT22;75462;42.122;24.736;2024-02-26T11:43:57;18.20;44.90
80176;DHT22;75462;42.122;24.736;2024-02-26T11:46:28;18.40;44.70
80176;DHT22;75462;42.122;24.736;2024-02-26T11:48:59;18.60;44.20
80176;DHT22;75462;42.122;24.736;2024-02-26T11:51:33;18.70;44.00
80176;DHT22;75462;42.122;24.736;2024-02-26T11:53:59;18.60;43.90
80176;DHT22;75462;42.122;24.736;2024-02-26T11:56:25;18.40;44.40
80176;DHT22;75462;42.122;24.736;2024-02-26T11:59:09;18.50;44.30
80176;DHT22;75462;42.122;24.736;2024-02-26T12:01:48;18.40;44.10
80176;DHT22;75462;42.122;24.736;2024-02-26T12:04:23;18.60;43.90
80176;DHT22;75462;42.122;24.736;2024-02-26T12:07:02;18.60;44.60
80176;DHT22;75462;42.122;24.736;2024-02-26T12:09:35;18.60;43.70
80176;DHT22;75462;42.122;24.736;2024-02-26T12:12:03;18.50;43.70
80176;DHT22;75462;42.122;24.736;2024-02-26T12:14:29;18.40;44.00
80176;DHT22;75462;42.122;24.736;2024-02-26T12:16:55;18.40;44.20
80176;DHT22;75462;42.122;24.736;2024-02-26T12:19:22;18.50;44.00
80176;DHT22;75462;42.122;24.736;2024-02-26T12:21:52;18.60;43.80
80176;DHT22;75462;42.122;24.736;2024-02-26T12:24:21;18.50;43.70
80176;DHT22;75462;42.122;24.736;2024-02-26T12:26:47;18.60;43.70
80176;DHT22;75462;42.122;24.736;2024-02-26T12:29:13;18.90;43.30
80176;DHT22;75462;42.122;24.736;2024-02-26T12:31:40;19.60;41.10
80176;DHT22;75462;42.122;24.736;2024-02-26T12:34:07;20.20;39.50
80176;DHT22;75462;42.122;24.736;2024-02-26T12:36:46;20.80;38.20
80176;DHT22;75462;42.122;24.736;2024-02-26T12:39:20;21.00;37.30
80176;DHT22;75462;42.122;24.736;2024-02-26T12:41:47;21.10;36.80
80176;DHT22;75462;42.122;24.736;2024-02-26T12:44:16;20.60;37.90
80176;DHT22;75462;42.122;24.736;2024-02-26T12:46:42;20.20;39.20
80176;DHT22;75462;42.122;24.736;2024-02-26T12:49:08;20.10;39.80
80176;DHT22;75462;42.122;24.736;2024-02-26T12:51:40;20.20;39.20
80176;DHT22;75462;42.122;24.736;2024-02-26T12:54:07;20.10;39.20
80176;DHT22;75462;42.122;24.736;2024-02-26T12:56:34;20.50;39.40
80176;DHT22;75462;42.122;24.736;2024-02-26T12:59:00;20.60;38.20
80176;DHT22;75462;42.122;24.736;2024-02-26T13:01:28;20.60;38.00
80176;DHT22;75462;42.122;24.736;2024-02-26T13:03:54;20.60;38.30
80176;DHT22;75462;42.122;24.736;2024-02-26T13:06:20;20.30;39.30
80176;DHT22;75462;42.122;24.736;2024-02-26T13:08:47;20.60;38.70
80176;DHT22;75462;42.122;24.736;2024-02-26T13:11:14;20.60;38.60
80176;DHT22;75462;42.122;24.736;2024-02-26T13:13:39;20.60;38.10
80176;DHT22;75462;42.122;24.736;2024-02-26T13:16:06;20.60;38.30
80176;DHT22;75462;42.122;24.736;2024-02-26T13:18:34;20.40;38.60
80176;DHT22;75462;42.122;24.736;2024-02-26T13:21:11;20.20;39.00
80176;DHT22;75462;42.122;24.736;2024-02-26T13:23:40;20.20;39.20
80176;DHT22;75462;42.122;24.736;2024-02-26T13:26:07;20.10;39.40
80176;DHT22;75462;42.122;24.736;2024-02-26T13:28:34;20.00;40.10
80176;DHT22;75462;42.122;24.736;2024-02-26T13:31:00;19.90;40.20
80176;DHT22;75462;42.122;24.736;2024-02-26T13:33:28;19.90;40.10
80176;DHT22;75462;42.122;24.736;2024-02-26T13:35:55;19.70;40.10
80176;DHT22;75462;42.122;24.736;2024-02-26T13:38:21;19.70;40.50
80176;DHT22;75462;42.122;24.736;2024-02-26T13:40:47;19.60;41.00
80176;DHT22;75462;42.122;24.736;2024-02-26T13:43:13;19.40;41.60
80176;DHT22;75462;42.122;24.736;2024-02-26T13:45:39;19.20;41.80
80176;DHT22;75462;42.122;24.736;2024-02-26T13:48:07;19.20;42.10
80176;DHT22;75462;42.122;24.736;2024-02-26T13:50:33;19.30;42.00
80176;DHT22;75462;42.122;24.736;2024-02-26T13:52:59;19.50;41.80
80176;DHT22;75462;42.122;24.736;2024-02-26T13:55:28;19.50;41.30
80176;DHT22;75462;42.122;24.736;2024-02-26T13:57:56;19.40;41.50
80176;DHT22;75462;42.122;24.736;2024-02-26T14:00:22;19.30;41.80
80176;DHT22;75462;42.122;24.736;2024-02-26T14:02:48;19.30;41.60
80176;DHT22;75462;42.122;24.736;2024-02-26T14:05:14;19.40;41.70
80176;DHT22;75462;42.122;24.736;2024-02-26T14:07:40;19.30;41.80
80176;DHT22;75462;42.122;24.736;2024-02-26T14:10:07;19.20;41.80
80176;DHT22;75462;42.122;24.736;2024-02-26T14:12:32;19.20;42.30
80176;DHT22;75462;42.122;24.736;2024-02-26T14:14:58;19.20;42.20
80176;DHT22;75462;42.122;24.736;2024-02-26T14:17:26;19.20;42.20
80176;DHT22;75462;42.122;24.736;2024-02-26T14:19:52;19.10;42.20
80176;DHT22;75462;42.122;24.736;2024-02-26T14:22:17;19.10;42.40
80176;DHT22;75462;42.122;24.736;2024-02-26T14:24:43;19.10;42.30
80176;DHT22;75462;42.122;24.736;2024-02-26T14:27:12;18.90;42.30
80176;DHT22;75462;42.122;24.736;2024-02-26T14:29:44;18.90;43.10
80176;DHT22;75462;42.122;24.736;2024-02-26T14:32:10;18.80;43.30
80176;DHT22;75462;42.122;24.736;2024-02-26T14:34:36;18.80;42.40
80176;DHT22;75462;42.122;24.736;2024-02-26T14:37:01;18.80;41.40
80176;DHT22;75462;42.122;24.736;2024-02-26T14:39:28;18.80;40.40
80176;DHT22;75462;42.122;24.736;2024-02-26T14:41:54;18.80;40.50
80176;DHT22;75462;42.122;24.736;2024-02-26T14:44:20;18.80;40.40
80176;DHT22;75462;42.122;24.736;2024-02-26T14:46:46;18.70;40.50
80176;DHT22;75462;42.122;24.736;2024-02-26T14:49:12;18.60;41.00
80176;DHT22;75462;42.122;24.736;2024-02-26T14:51:38;18.70;41.10
80176;DHT22;75462;42.122;24.736;2024-02-26T14:54:07;18.70;42.10
80176;DHT22;75462;42.122;24.736;2024-02-26T14:56:52;18.70;40.90
80176;DHT22;75462;42.122;24.736;2024-02-26T14:59:21;18.70;41.40
80176;DHT22;75462;42.122;24.736;2024-02-26T15:01:49;18.70;41.40
80176;DHT22;75462;42.122;24.736;2024-02-26T15:04:18;18.80;41.50
80176;DHT22;75462;42.122;24.736;2024-02-26T15:06:43;18.70;41.70
80176;DHT22;75462;42.122;24.736;2024-02-26T15:09:09;18.70;41.80
80176;DHT22;75462;42.122;24.736;2024-02-26T15:11:38;18.70;41.50
80176;DHT22;75462;42.122;24.736;2024-02-26T15:14:05;18.60;42.00